createdAt,value
2019-02-27T00:01:49.645Z,49.30
2019-02-27T00:04:12.950Z,49.59
2019-02-27T00:06:37.368Z,49.74
2019-02-27T00:09:01.833Z,49.79
2019-02-27T00:11:26.233Z,50.53
2019-02-27T00:13:50.745Z,50.28
2019-02-27T00:16:15.234Z,50.31
2019-02-27T00:18:39.817Z,50.31
2019-02-27T00:21:04.226Z,50.27
2019-02-27T00:23:28.695Z,50.02
2019-02-27T00:25:53.196Z,50.43
2019-02-27T00:28:17.611Z,51.12
2019-02-27T00:30:42.199Z,50.54
2019-02-27T00:33:06.625Z,50.61
2019-02-27T00:35:31.059Z,49.97
2019-02-27T00:37:55.473Z,50.09
2019-02-27T00:40:19.926Z,50.30
2019-02-27T00:42:44.335Z,50.69
2019-02-27T00:45:10.624Z,50.53
2019-02-27T00:47:35.046Z,50.86
2019-02-27T00:49:59.488Z,50.98
2019-02-27T00:52:23.984Z,50.86
2019-02-27T00:54:48.423Z,51.26
2019-02-27T00:57:12.851Z,51.48
2019-02-27T00:59:37.273Z,51.05
2019-02-27T01:02:01.764Z,50.92
2019-02-27T01:04:26.192Z,50.60
2019-02-27T01:06:50.669Z,50.57
2019-02-27T01:09:15.571Z,51.65
2019-02-27T01:11:39.983Z,51.65
2019-02-27T01:14:04.689Z,51.01
2019-02-27T01:16:29.163Z,51.62
2019-02-27T01:18:53.603Z,51.97
2019-02-27T01:21:19.956Z,51.59
2019-02-27T01:23:44.778Z,51.94
2019-02-27T01:26:09.710Z,52.16
2019-02-27T01:28:34.126Z,52.23
2019-02-27T01:30:58.574Z,52.31
2019-02-27T01:33:22.986Z,51.93
2019-02-27T01:35:51.372Z,52.28
2019-02-27T01:38:13.612Z,52.43
2019-02-27T01:40:38.040Z,52.95
2019-02-27T01:43:05.290Z,52.59
2019-02-27T01:45:28.649Z,53.00
2019-02-27T01:47:53.165Z,52.93
2019-02-27T01:50:31.764Z,53.17
2019-02-27T01:52:56.268Z,52.72
2019-02-27T01:55:22.427Z,53.57
2019-02-27T01:57:46.810Z,53.49
2019-02-27T02:00:11.388Z,53.99
2019-02-27T02:02:37.581Z,53.67
2019-02-27T02:05:02.075Z,53.58
2019-02-27T02:07:26.504Z,53.64
2019-02-27T02:09:52.188Z,53.27
2019-02-27T02:12:20.137Z,53.51
2019-02-27T02:14:54.308Z,54.35
2019-02-27T02:17:34.212Z,54.03
2019-02-27T02:20:19.508Z,53.95
2019-02-27T02:23:01.739Z,53.97
2019-02-27T02:25:38.126Z,54.29
2019-02-27T02:28:20.315Z,53.96
2019-02-27T02:31:13.157Z,54.77
2019-02-27T02:33:52.212Z,54.42
2019-02-27T02:36:31.771Z,54.34
2019-02-27T02:39:19.130Z,54.50
2019-02-27T02:42:04.409Z,54.30
2019-02-27T02:44:31.899Z,54.71
2019-02-27T02:46:59.405Z,54.63
2019-02-27T02:49:43.939Z,54.93
2019-02-27T02:52:17.265Z,55.08
2019-02-27T02:54:59.713Z,55.13
2019-02-27T02:57:45.011Z,55.08
2019-02-27T03:00:21.821Z,54.86
2019-02-27T03:03:00.802Z,54.57
2019-02-27T03:05:42.238Z,54.77
2019-02-27T03:08:24.399Z,54.64
2019-02-27T03:10:55.041Z,54.48
2019-02-27T03:13:24.324Z,55.02
2019-02-27T03:16:19.016Z,55.21
2019-02-27T03:18:52.249Z,55.09
2019-02-27T03:21:28.587Z,55.29
2019-02-27T03:23:57.496Z,55.80
2019-02-27T03:26:27.992Z,55.65
2019-02-27T03:28:55.504Z,55.29
2019-02-27T03:31:34.905Z,55.42
2019-02-27T03:34:35.687Z,55.42
2019-02-27T03:37:17.603Z,55.20
2019-02-27T03:40:03.100Z,55.42
2019-02-27T03:42:57.336Z,55.66
2019-02-27T03:45:47.530Z,56.04
2019-02-27T03:48:39.120Z,55.88
2019-02-27T03:51:24.397Z,55.83
2019-02-27T03:54:20.588Z,55.85
2019-02-27T03:56:46.855Z,56.24
2019-02-27T03:59:30.610Z,56.17
2019-02-27T04:02:16.576Z,56.20
2019-02-27T04:04:55.801Z,56.73
2019-02-27T04:07:32.739Z,56.72
2019-02-27T04:09:57.260Z,56.46
2019-02-27T04:12:21.753Z,56.53
2019-02-27T04:14:46.162Z,56.40
2019-02-27T04:17:10.600Z,55.95
2019-02-27T04:19:38.722Z,56.83
2019-02-27T04:22:02.066Z,56.36
2019-02-27T04:24:26.512Z,56.17
2019-02-27T04:26:50.957Z,56.16
2019-02-27T04:29:15.368Z,55.75
2019-02-27T04:31:39.810Z,55.86
2019-02-27T04:34:04.306Z,56.25
2019-02-27T04:36:28.754Z,56.16
2019-02-27T04:38:53.175Z,55.81
2019-02-27T04:41:18.055Z,55.57
2019-02-27T04:43:43.201Z,55.45
2019-02-27T04:46:07.612Z,55.10
2019-02-27T04:48:32.136Z,54.90
2019-02-27T04:50:56.614Z,54.98
2019-02-27T04:53:21.037Z,54.77
2019-02-27T04:55:47.938Z,54.47
2019-02-27T04:58:11.601Z,54.46
2019-02-27T05:00:36.083Z,54.98
2019-02-27T05:03:00.518Z,54.72
2019-02-27T05:05:24.938Z,54.31
2019-02-27T05:07:49.352Z,54.13
2019-02-27T05:10:13.860Z,54.33
2019-02-27T05:12:38.330Z,53.98
2019-02-27T05:15:04.186Z,54.15
2019-02-27T05:17:28.882Z,53.95
2019-02-27T05:19:53.321Z,54.42
2019-02-27T05:22:17.743Z,54.50
2019-02-27T05:24:42.199Z,54.36
2019-02-27T05:27:06.695Z,54.23
2019-02-27T05:29:31.126Z,54.21
2019-02-27T05:31:55.544Z,54.63
2019-02-27T05:34:19.985Z,54.01
2019-02-27T05:36:44.395Z,53.82
2019-02-27T05:39:08.837Z,54.08
2019-02-27T05:41:33.793Z,54.11
2019-02-27T05:43:58.257Z,54.44
2019-02-27T05:46:22.712Z,53.97
2019-02-27T05:48:47.139Z,53.67
2019-02-27T05:51:11.579Z,53.94
2019-02-27T05:53:36.166Z,54.16
2019-02-27T05:56:00.601Z,54.01
2019-02-27T05:58:25.025Z,54.75
2019-02-27T06:00:49.514Z,54.29
2019-02-27T06:03:15.955Z,54.17
2019-02-27T06:05:40.067Z,53.99
2019-02-27T06:08:04.556Z,54.51
2019-02-27T06:10:28.997Z,54.87
2019-02-27T06:12:53.414Z,54.50
2019-02-27T06:15:18.804Z,54.18
2019-02-27T06:17:43.749Z,54.52
2019-02-27T06:20:09.426Z,54.69
2019-02-27T06:22:33.847Z,54.67
2019-02-27T06:24:58.285Z,54.36
2019-02-27T06:27:22.714Z,54.74
2019-02-27T06:29:47.173Z,54.79
2019-02-27T06:32:12.343Z,55.05
2019-02-27T06:34:37.495Z,54.92
2019-02-27T06:37:01.963Z,54.81
2019-02-27T06:39:26.666Z,54.46
2019-02-27T06:41:51.103Z,54.74
2019-02-27T06:44:15.634Z,54.54
2019-02-27T06:46:40.078Z,54.66
2019-02-27T06:49:04.566Z,54.66
2019-02-27T06:51:29.052Z,54.67
2019-02-27T06:53:53.483Z,54.42
2019-02-27T06:56:17.940Z,54.63
2019-02-27T06:58:42.344Z,54.30
2019-02-27T07:01:09.371Z,54.58
2019-02-27T07:03:33.070Z,54.02
2019-02-27T07:05:57.597Z,54.18
2019-02-27T07:08:22.136Z,53.98
2019-02-27T07:10:46.579Z,54.12
2019-02-27T07:13:11.078Z,53.91
2019-02-27T07:15:35.493Z,54.12
2019-02-27T07:17:59.911Z,54.45
2019-02-27T07:20:25.358Z,54.22
2019-02-27T07:22:49.786Z,54.58
2019-02-27T07:25:18.441Z,54.43
2019-02-27T07:27:42.953Z,54.12
2019-02-27T07:30:13.156Z,54.85
2019-02-27T07:32:37.686Z,54.30
2019-02-27T07:35:02.105Z,54.80
2019-02-27T07:37:26.606Z,54.17
2019-02-27T07:39:51.021Z,54.10
2019-02-27T07:42:15.459Z,54.14
2019-02-27T07:44:39.874Z,54.66
2019-02-27T07:47:04.335Z,54.03
2019-02-27T07:49:30.935Z,53.62
2019-02-27T07:51:57.939Z,54.41
2019-02-27T07:54:20.991Z,54.35
2019-02-27T07:56:45.455Z,53.43
2019-02-27T07:59:09.863Z,53.96
2019-02-27T08:01:43.265Z,53.75
2019-02-27T08:04:00.408Z,53.39
2019-02-27T08:06:24.832Z,53.50
2019-02-27T08:08:49.281Z,53.61
2019-02-27T08:11:14.253Z,53.28
2019-02-27T08:13:38.825Z,53.38
2019-02-27T08:16:03.475Z,53.27
2019-02-27T08:18:30.565Z,52.83
2019-02-27T08:20:54.666Z,52.65
2019-02-27T08:23:19.683Z,52.48
2019-02-27T08:25:44.096Z,53.02
2019-02-27T08:28:08.615Z,52.96
2019-02-27T08:30:33.116Z,52.81
2019-02-27T08:32:57.636Z,53.11
2019-02-27T08:35:22.191Z,54.07
2019-02-27T08:37:46.723Z,54.18
2019-02-27T08:40:15.146Z,53.04
2019-02-27T08:42:40.547Z,52.83
2019-02-27T08:45:07.438Z,52.57
2019-02-27T08:47:33.625Z,53.17
2019-02-27T08:49:58.634Z,53.29
2019-02-27T08:52:23.094Z,52.59
2019-02-27T08:54:47.530Z,51.54
2019-02-27T08:57:12.018Z,51.42
2019-02-27T08:59:36.893Z,51.82
2019-02-27T09:02:02.742Z,51.35
2019-02-27T09:04:27.187Z,50.98
2019-02-27T09:06:51.615Z,50.08
2019-02-27T09:09:17.943Z,49.79
2019-02-27T09:11:42.294Z,49.79
2019-02-27T09:14:06.781Z,49.47
2019-02-27T09:16:31.230Z,49.74
2019-02-27T09:18:55.647Z,49.51
2019-02-27T09:21:20.097Z,49.28
2019-02-27T09:23:44.983Z,49.82
2019-02-27T09:26:09.758Z,48.91
2019-02-27T09:28:34.208Z,48.47
2019-02-27T09:31:03.344Z,47.75
2019-02-27T09:33:25.740Z,47.20
2019-02-27T09:35:50.270Z,46.71
2019-02-27T09:38:14.705Z,46.50
2019-02-27T09:40:39.694Z,46.73
2019-02-27T09:43:06.228Z,45.68
2019-02-27T09:45:35.367Z,45.69
2019-02-27T09:48:00.808Z,45.06
2019-02-27T09:50:31.024Z,44.89
2019-02-27T09:52:55.524Z,43.88
2019-02-27T09:55:20.840Z,43.92
2019-02-27T09:57:45.366Z,43.26
2019-02-27T10:00:30.650Z,42.81
2019-02-27T10:02:55.176Z,42.66
2019-02-27T10:05:19.680Z,42.28
2019-02-27T10:07:44.126Z,42.57
2019-02-27T10:10:10.440Z,41.51
2019-02-27T10:12:34.752Z,41.06
2019-02-27T10:14:59.218Z,40.71
2019-02-27T10:17:23.649Z,40.70
2019-02-27T10:19:48.072Z,40.61
2019-02-27T10:22:12.596Z,40.38
2019-02-27T10:24:37.620Z,39.61
2019-02-27T10:27:02.148Z,38.42
2019-02-27T10:29:26.584Z,38.56
2019-02-27T10:31:51.004Z,37.84
2019-02-27T10:34:17.615Z,37.70
2019-02-27T10:36:41.730Z,38.12
2019-02-27T10:39:07.099Z,37.01
2019-02-27T10:41:31.512Z,37.32
2019-02-27T10:43:56.589Z,36.23
2019-02-27T10:46:23.649Z,35.82
2019-02-27T10:48:48.027Z,35.52
2019-02-27T10:51:12.447Z,34.91
2019-02-27T10:53:36.897Z,35.11
2019-02-27T10:56:01.360Z,34.60
2019-02-27T10:58:25.886Z,33.39
2019-02-27T11:00:50.383Z,33.36
2019-02-27T11:03:14.915Z,32.33
2019-02-27T11:05:40.083Z,32.04
2019-02-27T11:08:04.647Z,32.32
2019-02-27T11:10:29.253Z,32.02
2019-02-27T11:12:53.824Z,31.81
2019-02-27T11:15:23.051Z,30.89
2019-02-27T11:17:47.488Z,30.95
2019-02-27T11:20:12.988Z,30.39
2019-02-27T11:22:37.485Z,29.57
2019-02-27T11:25:02.066Z,28.46
2019-02-27T11:27:26.491Z,28.54
2019-02-27T11:29:51.009Z,28.46
2019-02-27T11:32:15.445Z,28.00
2019-02-27T11:34:39.974Z,27.08
2019-02-27T11:37:04.451Z,27.24
2019-02-27T11:39:30.514Z,26.80
2019-02-27T11:41:55.080Z,26.57
2019-02-27T11:44:19.595Z,24.54
2019-02-27T11:46:44.081Z,23.47
2019-02-27T11:49:08.493Z,24.62
2019-02-27T11:51:32.955Z,21.72
2019-02-27T11:53:57.377Z,19.82
2019-02-27T11:56:21.825Z,19.13
2019-02-27T11:58:46.261Z,18.02
2019-02-27T12:01:12.186Z,17.25
2019-02-27T12:03:36.806Z,16.70
2019-02-27T12:06:01.244Z,15.27
2019-02-27T12:08:26.771Z,15.05
2019-02-27T12:10:51.449Z,15.68
2019-02-27T12:13:15.875Z,13.82
2019-02-27T12:15:43.352Z,13.59
2019-02-27T12:18:06.493Z,14.18
2019-02-27T12:20:31.124Z,13.55
2019-02-27T12:22:55.528Z,13.16
2019-02-27T12:25:21.518Z,13.17
2019-02-27T12:27:49.794Z,13.49
2019-02-27T12:30:25.767Z,13.17
2019-02-27T12:32:50.410Z,12.33
2019-02-27T12:35:20.495Z,12.61
2019-02-27T12:37:44.967Z,12.16
2019-02-27T12:40:12.696Z,12.42
2019-02-27T12:42:37.686Z,12.31
2019-02-27T12:45:03.373Z,11.69
2019-02-27T12:47:27.787Z,12.09
2019-02-27T12:49:54.187Z,12.09
2019-02-27T12:52:18.412Z,11.69
2019-02-27T12:54:42.844Z,11.85
2019-02-27T12:57:07.367Z,12.97
2019-02-27T12:59:33.019Z,13.04
2019-02-27T13:01:58.259Z,12.34
2019-02-27T13:04:22.867Z,12.36
2019-02-27T13:06:47.782Z,11.59
2019-02-27T13:09:12.645Z,12.08
2019-02-27T13:11:39.046Z,12.76
2019-02-27T13:14:03.256Z,12.55
2019-02-27T13:16:27.724Z,12.62
2019-02-27T13:18:55.142Z,12.64
2019-02-27T13:21:21.307Z,12.04
2019-02-27T13:23:45.775Z,12.91
2019-02-27T13:26:10.251Z,12.90
2019-02-27T13:28:34.973Z,13.75
2019-02-27T13:30:59.386Z,13.00
2019-02-27T13:33:23.811Z,12.84
2019-02-27T13:35:48.384Z,12.75
2019-02-27T13:38:17.730Z,13.08
2019-02-27T13:40:39.610Z,12.47
2019-02-27T13:43:04.477Z,13.60
2019-02-27T13:45:30.735Z,13.17
2019-02-27T13:47:55.692Z,12.66
2019-02-27T13:50:23.440Z,12.86
2019-02-27T13:52:49.900Z,12.58
2019-02-27T13:55:16.486Z,13.63
2019-02-27T13:57:41.222Z,12.74
2019-02-27T14:00:20.381Z,12.37
2019-02-27T14:02:41.000Z,11.81
2019-02-27T14:05:08.282Z,11.89
2019-02-27T14:07:33.082Z,11.24
2019-02-27T14:09:57.987Z,11.17
2019-02-27T14:12:22.747Z,11.43
2019-02-27T14:14:52.139Z,11.85
2019-02-27T14:17:14.108Z,12.56
2019-02-27T14:19:38.567Z,13.19
2019-02-27T14:22:07.322Z,13.37
2019-02-27T14:24:29.151Z,13.48
2019-02-27T14:26:53.560Z,12.70
2019-02-27T14:29:18.103Z,11.86
2019-02-27T14:31:43.435Z,12.69
2019-02-27T14:34:08.524Z,12.98
2019-02-27T14:36:32.985Z,12.45
2019-02-27T14:38:57.440Z,11.69
2019-02-27T14:41:21.853Z,12.04
2019-02-27T14:43:46.293Z,12.38
2019-02-27T14:46:11.494Z,12.85
2019-02-27T14:48:36.692Z,12.94
2019-02-27T14:51:01.189Z,13.70
2019-02-27T14:53:25.665Z,13.51
2019-02-27T14:55:50.175Z,13.80
2019-02-27T14:58:15.241Z,13.48
2019-02-27T15:00:40.979Z,13.54
2019-02-27T15:03:05.714Z,13.35
2019-02-27T15:05:30.379Z,12.79
2019-02-27T15:07:55.005Z,13.45
2019-02-27T15:10:21.768Z,12.77
2019-02-27T15:12:46.298Z,12.94
2019-02-27T15:15:19.755Z,12.71
2019-02-27T15:17:44.151Z,13.45
2019-02-27T15:20:11.970Z,13.47
2019-02-27T15:22:36.526Z,13.69
2019-02-27T15:25:01.053Z,13.71
2019-02-27T15:27:25.709Z,13.15
2019-02-27T15:29:50.321Z,13.58
2019-02-27T15:32:14.737Z,13.86
2019-02-27T15:34:39.168Z,14.91
2019-02-27T15:37:04.236Z,14.37
2019-02-27T15:39:29.469Z,14.13
2019-02-27T15:41:53.931Z,14.07
2019-02-27T15:44:18.348Z,14.28
2019-02-27T15:46:42.871Z,14.17
2019-02-27T15:49:07.288Z,15.60
2019-02-27T15:51:32.482Z,16.17
2019-02-27T15:53:57.624Z,16.96
2019-02-27T15:56:22.095Z,17.96
2019-02-27T15:58:46.586Z,18.06
2019-02-27T16:01:11.080Z,19.23
2019-02-27T16:03:35.527Z,20.19
2019-02-27T16:06:05.184Z,20.01
2019-02-27T16:08:26.219Z,19.96
2019-02-27T16:10:54.844Z,20.24
2019-02-27T16:13:16.781Z,20.28
2019-02-27T16:15:41.213Z,20.32
2019-02-27T16:18:05.681Z,20.93
2019-02-27T16:20:30.589Z,20.97
2019-02-27T16:22:55.115Z,20.97
2019-02-27T16:25:21.470Z,20.98
2019-02-27T16:27:46.268Z,21.06
2019-02-27T16:30:13.753Z,21.44
2019-02-27T16:32:38.210Z,21.66
2019-02-27T16:35:04.372Z,21.88
2019-02-27T16:37:28.841Z,21.93
2019-02-27T16:39:55.190Z,22.60
2019-02-27T16:42:19.418Z,22.76
2019-02-27T16:44:43.867Z,23.21
2019-02-27T16:47:08.293Z,23.27
2019-02-27T16:49:32.745Z,22.92
2019-02-27T16:51:57.169Z,22.75
2019-02-27T16:54:24.038Z,22.83
2019-02-27T16:56:50.062Z,23.08
2019-02-27T16:59:14.070Z,23.44
2019-02-27T17:01:38.578Z,23.51
2019-02-27T17:04:03.101Z,23.64
2019-02-27T17:06:27.666Z,23.89
2019-02-27T17:08:52.146Z,24.14
2019-02-27T17:11:16.637Z,24.36
2019-02-27T17:13:41.074Z,24.44
2019-02-27T17:16:07.095Z,24.83
2019-02-27T17:18:31.715Z,25.20
2019-02-27T17:20:56.127Z,25.62
2019-02-27T17:23:20.587Z,25.88
2019-02-27T17:25:45.060Z,26.37
2019-02-27T17:28:11.638Z,26.84
2019-02-27T17:30:38.030Z,26.93
2019-02-27T17:33:04.276Z,26.92
2019-02-27T17:35:28.987Z,27.90
2019-02-27T17:37:53.492Z,27.80
2019-02-27T17:40:18.946Z,28.35
2019-02-27T17:42:43.761Z,28.22
2019-02-27T17:45:13.074Z,28.35
2019-02-27T17:47:37.716Z,28.56
2019-02-27T17:50:02.144Z,29.07
2019-02-27T17:52:26.584Z,29.17
2019-02-27T17:54:51.129Z,29.47
2019-02-27T17:57:15.538Z,30.17
2019-02-27T17:59:42.302Z,30.53
2019-02-27T18:02:07.806Z,30.71
2019-02-27T18:04:32.299Z,30.89
2019-02-27T18:06:59.821Z,31.14
2019-02-27T18:09:23.445Z,31.65
2019-02-27T18:11:52.405Z,31.65
2019-02-27T18:14:17.784Z,31.71
2019-02-27T18:16:42.171Z,32.06
2019-02-27T18:19:06.630Z,32.13
2019-02-27T18:21:33.806Z,32.54
2019-02-27T18:23:58.890Z,32.33
2019-02-27T18:26:25.168Z,32.67
2019-02-27T18:28:49.597Z,32.72
2019-02-27T18:31:14.117Z,33.27
2019-02-27T18:33:38.632Z,33.77
2019-02-27T18:36:04.865Z,33.53
2019-02-27T18:38:29.250Z,33.83
2019-02-27T18:40:53.795Z,33.97
2019-02-27T18:43:27.222Z,34.53
2019-02-27T18:45:54.528Z,34.68
2019-02-27T18:48:20.586Z,34.70
2019-02-27T18:50:48.979Z,35.02
2019-02-27T18:53:17.639Z,34.84
2019-02-27T18:55:47.892Z,35.00
2019-02-27T18:58:13.832Z,35.57
2019-02-27T19:00:42.940Z,35.58
2019-02-27T19:03:10.396Z,35.24
2019-02-27T19:05:41.759Z,35.56
2019-02-27T19:08:16.698Z,35.78
2019-02-27T19:10:50.842Z,35.46
2019-02-27T19:13:26.003Z,35.05
2019-02-27T19:15:53.448Z,35.12
2019-02-27T19:18:20.573Z,34.70
2019-02-27T19:20:47.636Z,34.86
2019-02-27T19:23:17.154Z,35.05
2019-02-27T19:25:41.853Z,35.04
2019-02-27T19:28:13.166Z,35.19
2019-02-27T19:30:41.655Z,34.92
2019-02-27T19:33:17.453Z,34.95
2019-02-27T19:35:42.123Z,34.84
2019-02-27T19:38:12.575Z,34.92
2019-02-27T19:40:36.261Z,34.71
2019-02-27T19:43:06.513Z,35.12
2019-02-27T19:45:35.896Z,35.25
2019-02-27T19:47:57.422Z,35.34
2019-02-27T19:50:25.351Z,35.54
2019-02-27T19:52:54.029Z,35.52
2019-02-27T19:55:18.655Z,35.71
2019-02-27T19:57:47.273Z,36.10
2019-02-27T20:00:23.084Z,36.56
2019-02-27T20:02:55.251Z,36.50
2019-02-27T20:05:16.457Z,36.45
2019-02-27T20:07:43.310Z,36.71
2019-02-27T20:10:12.779Z,36.51
2019-02-27T20:12:39.009Z,36.59
2019-02-27T20:15:11.774Z,36.77
2019-02-27T20:17:36.485Z,37.17
2019-02-27T20:20:04.104Z,37.72
2019-02-27T20:22:27.863Z,37.77
2019-02-27T20:24:56.594Z,37.99
2019-02-27T20:27:32.973Z,37.89
2019-02-27T20:30:14.081Z,37.89
2019-02-27T20:32:30.214Z,38.05
2019-02-27T20:34:54.802Z,38.21
2019-02-27T20:37:21.022Z,38.60
2019-02-27T20:39:49.476Z,38.62
2019-02-27T20:42:24.675Z,38.83
2019-02-27T20:44:49.838Z,39.17
2019-02-27T20:47:21.887Z,38.89
2019-02-27T20:49:49.710Z,38.81
2019-02-27T20:52:14.903Z,39.19
2019-02-27T20:54:41.275Z,39.31
2019-02-27T20:57:08.086Z,39.59
2019-02-27T20:59:33.881Z,39.10
2019-02-27T21:02:03.586Z,38.88
2019-02-27T21:04:32.288Z,38.95
2019-02-27T21:07:00.907Z,38.97
2019-02-27T21:09:25.163Z,38.90
2019-02-27T21:11:49.555Z,38.86
2019-02-27T21:14:14.049Z,38.64
2019-02-27T21:16:40.169Z,38.89
2019-02-27T21:19:16.834Z,38.80
2019-02-27T21:21:41.309Z,39.33
2019-02-27T21:24:06.491Z,39.67
2019-02-27T21:26:32.645Z,39.76
2019-02-27T21:28:58.999Z,40.12
2019-02-27T21:31:27.586Z,39.78
2019-02-27T21:33:51.430Z,39.95
2019-02-27T21:36:16.093Z,40.12
2019-02-27T21:38:40.571Z,40.13
2019-02-27T21:41:05.163Z,40.91
2019-02-27T21:43:32.082Z,40.54
2019-02-27T21:45:56.668Z,41.34
2019-02-27T21:48:23.397Z,41.41
2019-02-27T21:50:47.378Z,41.37
2019-02-27T21:53:11.791Z,42.04
2019-02-27T21:55:36.316Z,42.34
2019-02-27T21:58:00.703Z,42.04
2019-02-27T22:00:28.019Z,41.46
2019-02-27T22:02:56.637Z,42.10
2019-02-27T22:05:21.128Z,42.18
2019-02-27T22:07:45.712Z,41.84
2019-02-27T22:10:19.455Z,41.71
2019-02-27T22:12:43.905Z,41.67
2019-02-27T22:15:13.055Z,41.53
2019-02-27T22:17:37.770Z,41.78
2019-02-27T22:20:02.183Z,41.85
2019-02-27T22:22:26.620Z,41.70
2019-02-27T22:24:52.226Z,41.88
2019-02-27T22:27:17.300Z,42.10
2019-02-27T22:29:42.692Z,42.21
2019-02-27T22:32:07.185Z,42.42
2019-02-27T22:34:31.656Z,42.35
2019-02-27T22:36:56.066Z,42.59
2019-02-27T22:39:22.107Z,43.12
2019-02-27T22:41:46.496Z,43.75
2019-02-27T22:44:10.929Z,44.60
2019-02-27T22:46:35.369Z,44.25
2019-02-27T22:49:01.013Z,44.46
2019-02-27T22:51:25.599Z,45.11
2019-02-27T22:53:50.036Z,45.06
2019-02-27T22:56:16.839Z,44.96
2019-02-27T22:58:40.600Z,45.22
2019-02-27T23:01:10.215Z,45.13
2019-02-27T23:03:40.566Z,44.92
2019-02-27T23:06:05.899Z,44.97
2019-02-27T23:08:30.395Z,45.19
2019-02-27T23:10:55.744Z,44.90
2019-02-27T23:13:20.344Z,45.79
2019-02-27T23:15:44.946Z,45.42
2019-02-27T23:18:09.522Z,45.83
2019-02-27T23:20:34.218Z,45.31
2019-02-27T23:23:02.424Z,45.79
2019-02-27T23:25:25.307Z,45.95
2019-02-27T23:27:49.789Z,45.81
2019-02-27T23:30:15.799Z,46.68
2019-02-27T23:32:41.094Z,46.47
2019-02-27T23:35:06.579Z,46.33
2019-02-27T23:37:31.381Z,46.07
2019-02-27T23:39:56.129Z,46.83
2019-02-27T23:42:20.857Z,46.44
2019-02-27T23:44:45.711Z,46.86
2019-02-27T23:47:10.629Z,47.37
2019-02-27T23:49:39.556Z,47.30
2019-02-27T23:52:01.699Z,47.23
2019-02-27T23:54:26.367Z,46.64
2019-02-27T23:56:51.821Z,47.15
2019-02-27T23:59:17.719Z,46.84
